Time;durP1;ratioP1;P1;durP2;ratioP2;P2;SDS_P1;SDS_P2;PMS_P1;PMS_P2;Temp;Humidity;BMP_temperature;BMP_pressure;BME280_temperature;BME280_humidity;BME280_pressure;Samples;Min_cycle;Max_cycle;Signal;HPM_P1;HPM_P2
2022/05/15 00:02:20;;;;;;;5.93;3.20;;;;;;;15.37;54.25;96963.22;5015619;28;20185;-69
2022/05/15 00:04:46;;;;;;;4.77;3.30;;;;;;;15.52;53.75;96963.34;5015440;28;20674;-70
2022/05/15 00:07:12;;;;;;;4.10;2.93;;;;;;;15.61;52.32;96953.09;5014793;28;20196;-70
2022/05/15 00:09:39;;;;;;;3.37;2.57;;;;;;;15.53;52.19;96957.03;5015065;28;20270;-70
2022/05/15 00:12:05;;;;;;;4.23;2.40;;;;;;;15.80;51.13;96952.44;5014406;28;20652;-70
2022/05/15 00:14:33;;;;;;;4.47;2.50;;;;;;;15.73;50.91;96953.72;5014601;28;20238;-71
2022/05/15 00:16:58;;;;;;;2.10;2.00;;;;;;;15.63;50.83;96946.50;5014510;28;20275;-70
2022/05/15 00:19:24;;;;;;;3.97;2.37;;;;;;;15.57;51.14;96942.25;5014069;28;20607;-70
2022/05/15 00:21:49;;;;;;;3.47;2.57;;;;;;;15.49;51.58;96941.91;5014151;28;20270;-70
2022/05/15 00:24:15;;;;;;;2.90;2.20;;;;;;;15.37;52.12;96944.72;5004101;28;20219;-70
2022/05/15 00:26:40;;;;;;;2.63;2.40;;;;;;;15.27;52.78;96945.41;5014672;28;20215;-70
2022/05/15 00:29:06;;;;;;;4.83;2.40;;;;;;;15.27;52.63;96942.78;5014663;28;20278;-70
2022/05/15 00:31:32;;;;;;;3.17;2.87;;;;;;;15.19;52.38;96943.25;4996694;28;20179;-70
2022/05/15 00:33:57;;;;;;;5.63;2.50;;;;;;;15.21;51.74;96946.41;5014096;28;20183;-70
2022/05/15 00:36:23;;;;;;;3.17;2.60;;;;;;;15.23;50.89;96949.63;5014060;28;20194;-70
2022/05/15 00:38:48;;;;;;;2.70;2.50;;;;;;;15.32;50.64;96955.25;5014500;28;20484;-70
2022/05/15 00:41:15;;;;;;;2.37;2.17;;;;;;;15.33;50.20;96940.97;5014010;28;20723;-70
2022/05/15 00:43:57;;;;;;;2.30;2.10;;;;;;;15.31;50.28;96938.59;5014271;28;20484;-70
2022/05/15 00:46:30;;;;;;;2.80;2.23;;;;;;;15.43;49.53;96929.72;5014018;28;20317;-70
2022/05/15 00:48:58;;;;;;;5.20;1.97;;;;;;;15.41;49.16;96929.94;5014739;28;20219;-70
2022/05/15 00:51:29;;;;;;;2.40;2.10;;;;;;;15.46;50.09;96937.09;5014288;28;20226;-70
2022/05/15 00:54:02;;;;;;;2.77;2.50;;;;;;;15.39;50.75;96932.84;5013307;28;20251;-70
2022/05/15 00:56:31;;;;;;;4.13;2.60;;;;;;;15.28;51.22;96936.44;5014041;28;20187;-70
2022/05/15 00:59:00;;;;;;;2.63;2.43;;;;;;;15.26;50.98;96932.50;5014064;28;20517;-71
2022/05/15 01:01:26;;;;;;;3.57;2.73;;;;;;;15.06;51.92;96938.38;5013946;28;20213;-70
2022/05/15 01:03:51;;;;;;;7.77;5.53;;;;;;;15.21;53.07;96933.22;5013719;28;20175;-71
2022/05/15 01:06:17;;;;;;;8.60;5.70;;;;;;;15.18;54.14;96933.75;5014087;28;20270;-71
2022/05/15 01:08:43;;;;;;;6.60;4.80;;;;;;;14.89;55.94;96938.50;5013572;28;20187;-71
2022/05/15 01:11:12;;;;;;;7.17;4.13;;;;;;;14.75;57.49;96936.50;5013900;28;20210;-70
2022/05/15 01:13:40;;;;;;;10.17;3.67;;;;;;;14.68;57.82;96930.63;5012841;28;20713;-70
2022/05/15 01:16:07;;;;;;;3.97;3.43;;;;;;;14.55;58.83;96937.09;5013246;28;20539;-70
2022/05/15 01:18:34;;;;;;;5.13;3.27;;;;;;;14.31;59.41;96936.53;5013671;28;20247;-70
2022/05/15 01:21:16;;;;;;;4.43;3.00;;;;;;;14.30;59.30;96932.31;5013441;28;20191;-70
2022/05/15 01:23:41;;;;;;;3.73;3.00;;;;;;;14.32;59.09;96932.84;4994700;28;20199;-70
2022/05/15 01:26:07;;;;;;;3.80;2.93;;;;;;;14.46;58.50;96938.56;5013400;28;20194;-70
2022/05/15 01:28:32;;;;;;;4.90;3.30;;;;;;;14.62;57.90;96928.97;5013977;28;20194;-70
2022/05/15 01:30:57;;;;;;;5.37;3.20;;;;;;;14.66;57.20;96924.78;5013208;28;20198;-71
2022/05/15 01:33:23;;;;;;;3.90;3.03;;;;;;;14.51;57.83;96928.06;5013526;28;20191;-71
2022/05/15 01:35:49;;;;;;;6.43;3.30;;;;;;;14.27;58.65;96929.34;5013037;28;20184;-71
2022/05/15 01:38:18;;;;;;;3.90;2.90;;;;;;;14.35;58.24;96928.94;4995853;28;20191;-70
2022/05/15 01:40:44;;;;;;;4.77;2.90;;;;;;;14.44;57.31;96922.19;5013282;28;20599;-71
2022/05/15 01:43:09;;;;;;;6.20;3.17;;;;;;;14.28;57.20;96921.19;5012869;28;20219;-71
2022/05/15 01:45:35;;;;;;;3.03;2.73;;;;;;;14.13;58.37;96923.66;5013547;28;20251;-71
2022/05/15 01:48:00;;;;;;;4.00;3.13;;;;;;;14.18;58.58;96926.34;5013306;28;20269;-70
2022/05/15 01:50:26;;;;;;;5.13;3.30;;;;;;;14.38;58.43;96928.44;5013207;28;20191;-71
2022/05/15 01:52:51;;;;;;;2.80;2.53;;;;;;;14.15;58.45;96932.91;5013086;28;20673;-70
2022/05/15 01:55:17;;;;;;;4.70;3.00;;;;;;;13.98;58.85;96924.28;5012355;28;20182;-71
2022/05/15 01:57:43;;;;;;;3.23;2.83;;;;;;;13.85;59.62;96923.81;5013227;28;20266;-70
2022/05/15 02:00:12;;;;;;;4.37;3.00;;;;;;;13.93;59.48;96926.06;5013276;28;20187;-70
2022/05/15 02:02:39;;;;;;;4.03;3.10;;;;;;;13.95;59.88;96918.69;5013072;28;20184;-70
2022/05/15 02:05:05;;;;;;;4.30;2.97;;;;;;;13.99;59.68;96925.84;5013164;28;20171;-70
2022/05/15 02:07:30;;;;;;;6.13;3.23;;;;;;;14.08;58.77;96916.50;5012688;28;20203;-71
2022/05/15 02:09:56;;;;;;;4.47;2.73;;;;;;;14.13;57.96;96910.47;5013040;28;20202;-70
2022/05/15 02:12:21;;;;;;;3.63;2.60;;;;;;;14.19;57.60;96916.63;5012995;28;20195;-70
2022/05/15 02:14:46;;;;;;;3.73;3.10;;;;;;;13.87;58.63;96911.22;5012767;28;20273;-70
2022/05/15 02:17:12;;;;;;;3.13;2.83;;;;;;;14.08;57.95;96911.22;5012431;28;20282;-70
2022/05/15 02:19:37;;;;;;;3.90;3.00;;;;;;;13.80;59.27;96911.38;5012568;28;20283;-70
2022/05/15 02:22:02;;;;;;;3.90;3.23;;;;;;;13.89;58.72;96909.91;5004168;28;20613;-71
2022/05/15 02:24:28;;;;;;;2.70;2.50;;;;;;;13.93;58.97;96907.59;5008984;28;20686;-71
2022/05/15 02:26:53;;;;;;;7.43;3.03;;;;;;;13.80;59.48;96905.31;5012586;28;20504;-71
2022/05/15 02:29:19;;;;;;;3.50;2.90;;;;;;;13.88;58.81;96910.16;5012446;28;20261;-71
2022/05/15 02:31:44;;;;;;;4.53;2.90;;;;;;;13.77;59.14;96911.84;5012909;28;20539;-71
2022/05/15 02:34:09;;;;;;;4.10;3.17;;;;;;;13.89;58.96;96917.81;4995092;28;20190;-71
2022/05/15 02:36:35;;;;;;;3.63;2.97;;;;;;;13.80;59.23;96915.84;4998102;28;20219;-71
2022/05/15 02:39:01;;;;;;;5.07;3.70;;;;;;;13.91;59.05;96914.94;5016851;28;20198;-71
2022/05/15 02:41:26;;;;;;;4.17;3.17;;;;;;;13.78;59.83;96907.38;5016837;28;20195;-71
2022/05/15 02:43:52;;;;;;;4.53;3.10;;;;;;;13.60;60.29;96909.25;5016012;28;20187;-72
2022/05/15 02:46:17;;;;;;;3.87;3.07;;;;;;;13.61;60.52;96915.31;4998631;28;20222;-71
2022/05/15 02:51:37;;;;;;;5.23;2.90;;;;;;;13.60;60.26;96914.53;4945782;28;20210;-71
2022/05/15 02:54:03;;;;;;;5.60;2.87;;;;;;;13.70;59.88;96908.63;5016111;28;20241;-71
2022/05/15 02:56:32;;;;;;;3.63;2.63;;;;;;;13.84;58.88;96909.06;5016175;28;20241;-70
2022/05/15 02:58:58;;;;;;;3.33;2.80;;;;;;;13.76;59.14;96909.50;5016278;28;20637;-71
2022/05/15 03:01:23;;;;;;;3.67;2.50;;;;;;;13.84;58.33;96909.84;5016309;28;20176;-71
2022/05/15 03:03:49;;;;;;;4.73;2.40;;;;;;;13.65;58.34;96906.69;4998459;28;20195;-71
2022/05/15 03:06:16;;;;;;;2.97;2.03;;;;;;;13.71;57.67;96904.94;5015842;28;20182;-71
2022/05/15 03:08:45;;;;;;;4.37;2.60;;;;;;;13.84;57.42;96906.41;5016122;28;20190;-71
2022/05/15 03:11:11;;;;;;;2.93;2.43;;;;;;;13.80;58.30;96910.59;5016078;28;20469;-71
2022/05/15 03:13:37;;;;;;;3.47;2.80;;;;;;;13.86;58.36;96912.25;5016053;28;20187;-71
2022/05/15 03:16:03;;;;;;;4.70;2.27;;;;;;;13.70;58.15;96909.44;4998257;28;20504;-71
2022/05/15 03:18:29;;;;;;;2.70;2.50;;;;;;;13.81;57.91;96893.75;5015884;28;20511;-71
2022/05/15 03:20:54;;;;;;;3.93;2.73;;;;;;;13.63;58.61;96895.63;5012289;28;20683;-71
2022/05/15 03:23:20;;;;;;;3.80;2.83;;;;;;;13.53;59.28;96906.03;5009023;28;20241;-71
2022/05/15 03:25:45;;;;;;;4.50;2.90;;;;;;;13.70;58.77;96909.44;5015540;28;20234;-71
2022/05/15 03:28:11;;;;;;;3.87;2.60;;;;;;;13.81;58.60;96905.09;5015823;28;20606;-70
2022/05/15 03:30:37;;;;;;;3.03;2.33;;;;;;;13.79;58.18;96909.00;5015998;28;20179;-71
2022/05/15 03:33:03;;;;;;;3.13;2.77;;;;;;;13.54;59.13;96902.31;4997717;28;20275;-71
2022/05/15 03:35:28;;;;;;;2.57;2.37;;;;;;;13.67;58.97;96909.09;5015793;28;20670;-71
2022/05/15 03:37:54;;;;;;;2.80;2.60;;;;;;;13.54;59.58;96910.22;4997504;28;20229;-71
2022/05/15 03:40:19;;;;;;;3.50;2.80;;;;;;;13.28;60.88;96916.97;5015755;28;20190;-71
2022/05/15 03:42:44;;;;;;;6.00;2.80;;;;;;;13.40;61.00;96911.63;4997792;28;20195;-72
2022/05/15 03:45:10;;;;;;;3.40;2.80;;;;;;;13.25;62.05;96914.03;5015609;28;20191;-72
2022/05/15 03:47:37;;;;;;;5.67;2.70;;;;;;;13.27;62.05;96911.94;5014567;28;20215;-72
2022/05/15 03:50:04;;;;;;;4.03;2.70;;;;;;;13.37;61.86;96914.75;5015264;28;20195;-72
2022/05/15 03:52:30;;;;;;;3.53;2.70;;;;;;;13.33;62.09;96919.66;5015168;28;20194;-71
2022/05/15 03:54:55;;;;;;;4.57;3.63;;;;;;;13.50;61.81;96921.50;5015349;28;20187;-72
2022/05/15 03:57:21;;;;;;;3.47;3.03;;;;;;;13.55;61.72;96917.09;4997788;28;20179;-71
2022/05/15 03:59:46;;;;;;;4.80;3.10;;;;;;;13.60;61.56;96916.34;5015153;28;20183;-72
2022/05/15 04:02:12;;;;;;;3.10;2.80;;;;;;;13.58;62.03;96915.81;5015114;28;20179;-72
2022/05/15 04:04:38;;;;;;;3.87;3.13;;;;;;;13.72;61.37;96917.88;5015565;28;20237;-71
2022/05/15 04:07:04;;;;;;;4.53;3.13;;;;;;;13.73;61.67;96927.38;5014815;28;20286;-72
2022/05/15 04:09:31;;;;;;;6.07;3.27;;;;;;;13.79;61.39;96930.88;4997380;28;20645;-72
2022/05/15 04:11:56;;;;;;;3.10;2.80;;;;;;;13.82;61.05;96924.31;5014951;28;20194;-71
2022/05/15 04:14:21;;;;;;;4.93;2.80;;;;;;;13.98;60.64;96918.22;5015069;28;20262;-71
2022/05/15 04:16:47;;;;;;;2.73;2.50;;;;;;;13.98;60.63;96915.56;5017900;28;20667;-71
2022/05/15 04:19:13;;;;;;;5.50;2.93;;;;;;;13.90;61.07;96923.88;5007158;28;20788;-71
2022/05/15 04:21:40;;;;;;;3.80;3.20;;;;;;;14.10;60.30;96924.94;5001779;28;20219;-71
2022/05/15 04:24:11;;;;;;;3.53;2.60;;;;;;;14.66;58.86;96919.50;5012192;28;20656;-71
2022/05/15 04:26:38;;;;;;;3.67;2.33;;;;;;;14.83;56.84;96921.00;5015115;28;20203;-71
2022/05/15 04:29:04;;;;;;;4.27;1.90;;;;;;;14.77;56.72;96918.56;5014379;28;20633;-71
2022/05/15 04:31:30;;;;;;;3.93;2.10;;;;;;;14.85;56.57;96920.78;5014844;28;20202;-71
2022/05/15 04:33:56;;;;;;;4.77;2.30;;;;;;;14.88;56.60;96918.41;5014234;28;20245;-71
2022/05/15 04:36:22;;;;;;;3.07;2.27;;;;;;;15.04;56.45;96926.50;5014245;28;20493;-71
2022/05/15 04:38:48;;;;;;;3.63;2.03;;;;;;;14.74;57.32;96927.00;5014362;28;20186;-71
2022/05/15 04:41:13;;;;;;;5.00;2.33;;;;;;;14.90;57.32;96928.72;5014113;28;20183;-71
2022/05/15 04:43:39;;;;;;;4.77;2.00;;;;;;;14.90;57.00;96918.97;4996812;28;20183;-69
2022/05/15 04:46:07;;;;;;;2.30;2.10;;;;;;;15.23;56.25;96922.41;5014087;28;20194;-70
2022/05/15 04:48:34;;;;;;;3.10;2.10;;;;;;;15.47;55.69;96925.50;5014469;28;20392;-70
2022/05/15 04:50:59;;;;;;;2.33;2.10;;;;;;;15.59;55.70;96926.94;5013824;28;20227;-71
2022/05/15 04:53:27;;;;;;;2.37;2.10;;;;;;;15.99;54.85;96928.22;5013829;28;20210;-71
2022/05/15 04:55:52;;;;;;;4.23;1.90;;;;;;;16.47;53.40;96929.75;5013960;28;20183;-71
2022/05/15 04:58:18;;;;;;;1.60;1.50;;;;;;;16.51;52.49;96931.59;5013128;28;20187;-71
2022/05/15 05:00:43;;;;;;;3.30;1.63;;;;;;;16.45;52.55;96929.19;5014090;28;20217;-70
2022/05/15 05:03:09;;;;;;;2.13;1.40;;;;;;;16.91;51.84;96927.47;5013819;28;20222;-70
2022/05/15 05:05:34;;;;;;;6.73;1.90;;;;;;;17.52;49.98;96924.84;5013376;28;20241;-71
2022/05/15 05:07:59;;;;;;;2.07;1.87;;;;;;;17.51;49.44;96924.03;4996103;28;20194;-70
2022/05/15 05:10:25;;;;;;;1.60;1.50;;;;;;;17.69;49.68;96920.88;5013683;28;20183;-70
2022/05/15 05:12:50;;;;;;;1.98;1.60;;;;;;;18.00;49.31;96921.56;5013590;28;20640;-69
2022/05/15 05:15:16;;;;;;;2.15;1.60;;;;;;;18.25;48.63;96928.66;5013481;28;20195;-69
2022/05/15 05:17:42;;;;;;;2.33;2.17;;;;;;;18.32;48.75;96920.41;5013354;28;20218;-71
2022/05/15 05:20:10;;;;;;;3.78;2.08;;;;;;;18.53;47.85;96924.56;5019339;28;20613;-70
2022/05/15 05:22:35;;;;;;;3.72;1.70;;;;;;;18.45;48.33;96928.56;5006549;28;20243;-70
2022/05/15 05:25:01;;;;;;;4.20;2.22;;;;;;;18.78;47.44;96928.97;5013143;28;20179;-69
2022/05/15 05:27:26;;;;;;;2.30;1.45;;;;;;;18.75;47.53;96932.94;5013365;28;20684;-69
2022/05/15 05:29:52;;;;;;;3.33;1.50;;;;;;;19.41;46.25;96945.75;5013653;28;20218;-69
2022/05/15 05:32:17;;;;;;;2.53;1.67;;;;;;;19.33;46.98;96941.88;5013662;28;20194;-70
2022/05/15 05:34:43;;;;;;;2.05;1.40;;;;;;;19.26;47.08;96948.56;5013366;28;20183;-70
2022/05/15 05:37:08;;;;;;;5.15;2.05;;;;;;;19.47;46.83;96950.81;5013665;28;20205;-70
2022/05/15 05:39:33;;;;;;;6.68;1.83;;;;;;;19.79;46.41;96958.22;5013073;28;20272;-69
2022/05/15 05:41:59;;;;;;;2.65;1.83;;;;;;;19.93;46.12;96945.06;5013473;28;20266;-70
2022/05/15 05:44:26;;;;;;;2.13;1.60;;;;;;;19.51;47.75;96951.03;5013270;28;20640;-70
2022/05/15 05:46:51;;;;;;;5.10;1.95;;;;;;;19.21;48.38;96951.25;5012852;28;20234;-70
2022/05/15 05:49:17;;;;;;;4.38;2.17;;;;;;;19.33;48.07;96943.72;5013018;28;20226;-71
2022/05/15 05:51:43;;;;;;;3.33;1.70;;;;;;;19.28;49.13;96944.53;5012848;28;20194;-71
2022/05/15 05:54:08;;;;;;;2.20;1.70;;;;;;;18.82;49.50;96951.25;5012716;28;20183;-70
2022/05/15 05:56:34;;;;;;;3.28;1.77;;;;;;;18.94;49.92;96952.50;5012502;28;20198;-69
2022/05/15 05:58:59;;;;;;;3.28;2.05;;;;;;;19.02;50.09;96951.91;5013259;28;20253;-70
2022/05/15 06:01:24;;;;;;;2.45;1.95;;;;;;;19.21;49.80;96943.28;5011130;28;20192;-70
2022/05/15 06:06:34;;;;;;;3.50;2.15;;;;;;;20.09;48.06;96941.16;5012446;28;20182;-70
2022/05/15 06:08:59;;;;;;;3.08;2.10;;;;;;;20.10;48.13;96944.59;5013087;28;20628;-70
2022/05/15 06:11:24;;;;;;;2.65;2.08;;;;;;;19.53;48.69;96940.91;5012428;28;20191;-70
2022/05/15 06:13:50;;;;;;;2.92;2.22;;;;;;;18.64;51.17;96945.50;5012609;28;20274;-70
2022/05/15 06:16:15;;;;;;;4.03;2.10;;;;;;;19.51;48.97;96938.53;5012569;28;20187;-70
2022/05/15 06:18:41;;;;;;;4.50;2.30;;;;;;;19.91;48.67;96939.22;4994104;28;20219;-70
2022/05/15 06:21:07;;;;;;;2.90;2.00;;;;;;;20.28;47.64;96935.91;5007832;28;20202;-71
2022/05/15 06:23:32;;;;;;;3.65;2.33;;;;;;;20.22;49.31;96940.47;5011747;28;20183;-70
2022/05/15 06:25:58;;;;;;;3.50;2.20;;;;;;;20.36;48.47;96942.47;5012812;28;20546;-70
2022/05/15 06:28:24;;;;;;;2.10;1.80;;;;;;;19.96;48.25;96939.16;5012806;28;20261;-70
2022/05/15 06:30:49;;;;;;;2.15;1.90;;;;;;;19.56;48.58;96948.31;5012579;28;20590;-69
2022/05/15 06:33:14;;;;;;;3.70;1.80;;;;;;;19.83;49.08;96943.31;5012761;28;20695;-69
2022/05/15 06:35:40;;;;;;;3.35;1.83;;;;;;;19.62;48.62;96941.09;5012566;28;20183;-71
2022/05/15 06:38:07;;;;;;;2.22;1.70;;;;;;;19.83;47.99;96942.50;4994777;28;20202;-71
2022/05/15 06:40:33;;;;;;;2.28;2.08;;;;;;;19.95;48.44;96942.88;5011740;28;20187;-70
2022/05/15 06:42:59;;;;;;;3.45;2.13;;;;;;;19.34;49.09;96939.97;5004468;28;20191;-70
2022/05/15 06:45:26;;;;;;;3.08;2.33;;;;;;;19.54;49.00;96944.38;5012378;28;22062;-70
2022/05/15 06:47:51;;;;;;;2.58;2.03;;;;;;;19.59;48.74;96936.34;5012243;28;20211;-70
2022/05/15 06:50:17;;;;;;;3.05;1.80;;;;;;;20.08;47.57;96936.09;5012773;28;20191;-70
2022/05/15 06:52:42;;;;;;;2.95;1.50;;;;;;;20.17;46.84;96945.06;5012547;28;20206;-71
2022/05/15 06:55:11;;;;;;;2.10;1.90;;;;;;;19.77;48.46;96944.41;5008657;28;20186;-72
2022/05/15 06:57:38;;;;;;;2.10;1.90;;;;;;;19.44;49.07;96943.38;5012766;28;20629;-70
2022/05/15 07:00:13;;;;;;;3.05;2.10;;;;;;;19.97;48.39;96945.28;5012465;28;20187;-72
2022/05/15 07:02:41;;;;;;;3.17;2.20;;;;;;;20.26;49.10;96952.13;5012620;28;20183;-71
2022/05/15 07:05:09;;;;;;;1.98;1.75;;;;;;;19.65;52.13;96951.19;5012925;28;20198;-72
2022/05/15 07:07:34;;;;;;;4.55;2.40;;;;;;;19.35;53.43;96944.22;5012636;28;20207;-72
2022/05/15 07:09:59;;;;;;;5.88;2.50;;;;;;;19.68;52.49;96946.09;5012390;28;20183;-72
2022/05/15 07:12:25;;;;;;;3.60;2.28;;;;;;;19.41;52.81;96943.91;5012842;28;20366;-73
2022/05/15 07:14:51;;;;;;;2.20;2.10;;;;;;;19.15;53.83;96945.19;5012323;28;20190;-74
2022/05/15 07:17:16;;;;;;;3.53;2.47;;;;;;;18.86;54.64;96942.44;5012487;28;20228;-72
2022/05/15 07:19:42;;;;;;;2.85;2.20;;;;;;;19.33;53.32;96944.53;5006645;28;20246;-72
2022/05/15 07:22:07;;;;;;;4.50;2.40;;;;;;;19.81;49.67;96939.31;4995846;28;20222;-73
2022/05/15 07:24:33;;;;;;;2.50;2.10;;;;;;;19.92;50.25;96941.59;5015699;28;20250;-73
2022/05/15 07:26:59;;;;;;;2.30;2.10;;;;;;;19.64;51.54;96949.59;4990688;28;20215;-73
2022/05/15 07:29:24;;;;;;;4.40;2.25;;;;;;;20.20;50.21;96945.28;5015735;28;20194;-72
2022/05/15 07:31:51;;;;;;;3.38;2.25;;;;;;;20.79;49.51;96948.59;5016189;28;20191;-73
2022/05/15 07:34:17;;;;;;;4.70;1.90;;;;;;;20.34;49.25;96943.53;5015865;28;20651;-72
2022/05/15 07:36:43;;;;;;;2.22;2.05;;;;;;;20.79;48.71;96946.69;5015524;28;20191;-74
2022/05/15 07:39:08;;;;;;;4.38;1.92;;;;;;;20.61;48.43;96942.16;5015979;28;20334;-74
2022/05/15 07:41:34;;;;;;;5.05;1.92;;;;;;;20.01;47.91;96941.75;5005447;28;20196;-71
2022/05/15 07:43:59;;;;;;;2.47;1.90;;;;;;;20.47;48.82;96938.59;5014564;28;20187;-72
2022/05/15 07:46:25;;;;;;;3.75;1.80;;;;;;;20.06;50.09;96940.94;5011840;28;20211;-75
2022/05/15 07:48:50;;;;;;;3.10;2.13;;;;;;;20.19;49.90;96943.69;4996295;28;20258;-74
2022/05/15 07:51:16;;;;;;;2.88;2.08;;;;;;;20.73;49.16;96937.22;4995928;28;20220;-73
2022/05/15 07:53:42;;;;;;;2.58;2.13;;;;;;;21.32;48.01;96935.81;4996164;28;20535;-74
2022/05/15 07:56:13;;;;;;;1.80;1.70;;;;;;;21.02;47.67;96940.50;5012957;28;20629;-72
2022/05/15 07:58:39;;;;;;;3.55;2.03;;;;;;;20.83;47.67;96938.94;5000117;28;20259;-73
2022/05/15 08:01:05;;;;;;;2.03;1.70;;;;;;;20.76;48.32;96933.97;5015829;28;20184;-73
2022/05/15 08:03:43;;;;;;;2.08;1.48;;;;;;;20.56;48.15;96932.34;5015650;28;20275;-73
2022/05/15 08:08:54;;;;;;;1.73;1.60;;;;;;;20.67;48.53;96933.78;5014980;28;20225;-73
2022/05/15 08:11:20;;;;;;;3.60;2.28;;;;;;;20.90;48.81;96937.47;5014186;28;20191;-73
2022/05/15 08:13:46;;;;;;;2.60;1.83;;;;;;;20.77;49.25;96940.88;5014858;28;20193;-72
2022/05/15 08:16:11;;;;;;;5.78;1.70;;;;;;;21.34;46.73;96936.34;5014330;28;20191;-71
2022/05/15 08:24:05;;;;;;;3.92;1.83;;;;;;;21.51;47.16;96934.69;5013577;28;20189;-71
2022/05/15 08:26:31;;;;;;;2.05;1.77;;;;;;;21.61;46.60;96930.28;5014129;28;20187;-71
2022/05/15 08:28:57;;;;;;;1.85;1.55;;;;;;;21.58;46.07;96936.97;5014774;28;20640;-71
2022/05/15 08:31:24;;;;;;;3.38;1.75;;;;;;;21.20;48.13;96933.59;5014743;28;20203;-72
2022/05/15 08:33:51;;;;;;;3.40;2.15;;;;;;;21.91;46.04;96935.06;5014235;28;20280;-70
2022/05/15 08:36:17;;;;;;;1.88;1.65;;;;;;;21.50;45.34;96925.13;5014437;28;20200;-73
2022/05/15 08:38:44;;;;;;;2.60;1.55;;;;;;;21.77;45.91;96932.38;4997006;28;20496;-73
2022/05/15 08:41:25;;;;;;;3.17;1.80;;;;;;;21.77;45.54;96935.06;5013225;28;20202;-74
2022/05/15 08:43:53;;;;;;;2.05;1.60;;;;;;;21.55;45.42;96934.91;5014414;28;20609;-73
2022/05/15 08:46:49;;;;;;;3.88;1.90;;;;;;;21.74;46.22;96929.50;5013847;28;20253;-72
2022/05/15 08:49:36;;;;;;;3.55;1.88;;;;;;;21.75;46.36;96931.06;5013811;28;20183;-73
2022/05/15 08:52:41;;;;;;;3.33;1.80;;;;;;;22.15;46.61;96927.69;4983968;28;20218;-70
2022/05/15 08:55:21;;;;;;;2.97;1.90;;;;;;;22.31;45.45;96925.50;5014174;28;20225;-73
2022/05/15 08:57:59;;;;;;;2.05;1.95;;;;;;;21.93;46.39;96925.69;5013851;28;20183;-71
2022/05/15 09:00:39;;;;;;;2.83;1.80;;;;;;;22.16;47.29;96933.81;5014335;28;20592;-72
2022/05/15 09:03:18;;;;;;;2.03;1.70;;;;;;;21.85;45.99;96926.34;5013770;28;20211;-72
2022/05/15 09:05:52;;;;;;;5.97;2.13;;;;;;;22.22;46.09;96930.75;5028968;28;20213;-71
2022/05/15 09:08:57;;;;;;;9.10;2.10;;;;;;;22.51;44.68;96925.09;5014036;28;20203;-72
2022/05/15 09:11:36;;;;;;;1.92;1.83;;;;;;;22.66;44.84;96923.97;5004619;28;20203;-72
2022/05/15 09:14:31;;;;;;;3.03;2.10;;;;;;;22.40;45.73;96927.16;5013421;28;20187;-73
2022/05/15 09:17:04;;;;;;;2.95;2.00;;;;;;;22.48;45.28;96924.88;5009661;28;20207;-73
2022/05/15 09:19:29;;;;;;;4.10;2.00;;;;;;;22.85;43.53;96927.31;4999176;28;20200;-73
2022/05/15 09:21:56;;;;;;;2.47;2.22;;;;;;;22.76;44.55;96924.56;4996104;28;20636;-73
2022/05/15 09:24:34;;;;;;;2.80;1.90;;;;;;;22.99;44.15;96922.72;5012811;28;20670;-73
2022/05/15 09:27:12;;;;;;;4.68;1.70;;;;;;;22.47;42.48;96923.31;5013974;28;20550;-72
2022/05/15 09:29:38;;;;;;;1.92;1.60;;;;;;;22.27;43.50;96921.84;5011610;28;20179;-72
2022/05/15 09:32:06;;;;;;;4.68;1.90;;;;;;;22.66;43.97;96930.13;4997172;28;20206;-72
2022/05/15 09:34:35;;;;;;;2.72;1.80;;;;;;;22.64;43.04;96923.47;4996037;28;20183;-72
2022/05/15 09:40:07;;;;;;;3.15;1.67;;;;;;;22.93;42.18;96920.47;4969728;28;20278;-72
2022/05/15 09:45:20;;;;;;;1.95;1.63;;;;;;;22.72;41.80;96915.59;5011970;28;20202;-70
2022/05/15 09:48:01;;;;;;;1.50;1.40;;;;;;;22.86;40.37;96920.09;5012142;28;20230;-72
2022/05/15 09:50:49;;;;;;;2.83;2.10;;;;;;;22.58;41.18;96913.97;5013448;28;20187;-71
2022/05/15 09:53:55;;;;;;;1.95;1.67;;;;;;;22.85;41.95;96910.50;4995629;28;20293;-70
2022/05/15 09:56:20;;;;;;;2.47;1.65;;;;;;;22.85;42.29;96907.84;4952668;29;20197;-71
2022/05/15 09:58:55;;;;;;;2.42;1.90;;;;;;;22.84;41.42;96912.38;4942522;29;20202;-70
2022/05/15 10:01:23;;;;;;;3.88;1.90;;;;;;;23.05;41.92;96913.50;4928342;29;20690;-71
2022/05/15 10:03:54;;;;;;;3.92;1.67;;;;;;;22.98;41.96;96909.66;4931848;29;20202;-72
2022/05/15 10:06:23;;;;;;;3.22;1.90;;;;;;;22.79;42.13;96905.25;4936779;29;20288;-71
2022/05/15 10:09:07;;;;;;;1.70;1.60;;;;;;;22.80;41.90;96896.16;4923338;29;20226;-71
2022/05/15 10:11:35;;;;;;;5.15;1.55;;;;;;;23.20;41.05;96893.63;4943318;29;20186;-71
2022/05/15 10:14:02;;;;;;;1.70;1.60;;;;;;;23.56;40.06;96899.72;4934315;29;20206;-72
2022/05/15 10:16:30;;;;;;;2.03;1.60;;;;;;;23.50;40.15;96890.22;4937273;29;20280;-72
2022/05/15 10:19:04;;;;;;;3.22;1.50;;;;;;;23.71;39.40;96889.69;4947495;28;20241;-72
2022/05/15 10:21:41;;;;;;;2.05;1.60;;;;;;;23.82;39.45;96886.44;4948824;29;20253;-72
2022/05/15 10:24:14;;;;;;;1.65;1.50;;;;;;;23.69;39.04;96889.19;4942651;29;20199;-72
2022/05/15 10:26:55;;;;;;;4.00;1.75;;;;;;;23.88;38.98;96881.72;4957949;28;20191;-70
2022/05/15 10:29:43;;;;;;;2.17;1.80;;;;;;;23.87;38.75;96875.59;5012957;28;20632;-73
2022/05/15 10:32:15;;;;;;;3.10;1.40;;;;;;;23.73;38.60;96874.13;5020940;28;20198;-73
2022/05/15 10:34:41;;;;;;;3.05;1.65;;;;;;;23.67;37.68;96878.03;5012542;28;20266;-73
2022/05/15 10:37:26;;;;;;;1.58;1.48;;;;;;;23.66;37.92;96881.78;5013512;28;20551;-73
2022/05/15 10:40:03;;;;;;;3.58;1.77;;;;;;;23.34;38.42;96875.63;5012868;28;20171;-73
2022/05/15 10:42:53;;;;;;;3.08;1.70;;;;;;;23.31;37.91;96867.41;5012595;28;20179;-73
2022/05/15 10:45:31;;;;;;;1.83;1.58;;;;;;;23.38;38.45;96871.22;4999908;28;20219;-73
2022/05/15 10:48:00;;;;;;;2.65;1.55;;;;;;;23.63;38.21;96864.44;5012344;28;20241;-73
2022/05/15 10:50:37;;;;;;;4.18;1.50;;;;;;;23.12;37.89;96859.59;5012542;28;20179;-72
2022/05/15 10:59:39;;;;;;;2.05;1.67;;;;;;;23.96;36.74;96841.59;5016208;28;20199;-72
2022/05/15 11:02:07;;;;;;;3.15;1.60;;;;;;;23.91;36.65;96848.97;5011824;28;20187;-73
2022/05/15 11:04:45;;;;;;;5.07;1.77;;;;;;;24.05;36.05;96838.94;5009738;28;20183;-73
2022/05/15 11:07:36;;;;;;;1.60;1.52;;;;;;;24.16;36.87;96832.19;4993622;28;20198;-73
2022/05/15 11:10:24;;;;;;;1.95;1.60;;;;;;;24.28;36.57;96834.28;5007091;28;20203;-74
2022/05/15 11:12:52;;;;;;;4.30;1.85;;;;;;;24.43;36.36;96831.94;4997891;28;20199;-74
2022/05/15 11:15:51;;;;;;;3.40;1.77;;;;;;;23.56;37.36;96837.38;5015649;28;20217;-73
2022/05/15 11:18:32;;;;;;;2.13;1.88;;;;;;;23.85;37.16;96832.25;5002841;28;20274;-73
2022/05/15 11:21:06;;;;;;;1.90;1.60;;;;;;;24.25;36.20;96824.19;5014225;28;20180;-73
2022/05/15 11:23:42;;;;;;;2.30;1.80;;;;;;;24.53;35.06;96825.47;5014774;28;20167;-74
2022/05/15 11:26:21;;;;;;;3.08;1.80;;;;;;;24.42;36.10;96816.16;5016085;28;20176;-73
2022/05/15 11:28:56;;;;;;;1.70;1.60;;;;;;;24.42;34.81;96825.00;5015578;28;20290;-73
2022/05/15 11:31:44;;;;;;;11.32;2.00;;;;;;;24.00;36.46;96821.13;4990632;28;20184;-73
2022/05/15 11:34:10;;;;;;;1.70;1.60;;;;;;;23.77;35.96;96819.66;5005453;28;20210;-73
2022/05/15 11:36:40;;;;;;;3.92;1.85;;;;;;;23.97;35.66;96823.63;5003850;28;20191;-73
2022/05/15 11:39:11;;;;;;;2.67;1.80;;;;;;;24.09;35.54;96818.47;5014989;28;20599;-73
2022/05/15 11:41:39;;;;;;;1.73;1.60;;;;;;;24.33;36.19;96820.75;5014915;28;20183;-73
2022/05/15 11:44:10;;;;;;;2.20;1.50;;;;;;;24.37;35.41;96819.00;5015525;28;20234;-73
2022/05/15 11:46:44;;;;;;;2.47;1.80;;;;;;;23.98;35.49;96811.81;5012349;28;20188;-71
2022/05/15 11:49:30;;;;;;;1.88;1.77;;;;;;;23.71;35.97;96809.38;5014839;28;20277;-71
2022/05/15 11:52:04;;;;;;;2.13;1.88;;;;;;;23.95;35.52;96804.44;5014987;28;20185;-71
2022/05/15 11:54:35;;;;;;;5.75;1.80;;;;;;;24.22;35.78;96808.75;5015404;28;20190;-71
2022/05/15 11:57:03;;;;;;;3.58;1.75;;;;;;;24.28;34.82;96805.63;5015864;28;20640;-72
2022/05/15 11:59:54;;;;;;;3.25;2.40;;;;;;;24.51;35.84;96808.94;5015454;28;20548;-73
2022/05/15 12:02:28;;;;;;;2.08;1.67;;;;;;;24.08;35.91;96800.03;4998500;28;20184;-73
2022/05/15 12:05:09;;;;;;;1.90;1.67;;;;;;;24.49;35.81;96797.75;5014588;28;20552;-72
2022/05/15 12:08:07;;;;;;;1.73;1.40;;;;;;;24.43;35.84;96793.63;5015089;28;20207;-72
2022/05/15 12:10:35;;;;;;;2.05;1.67;;;;;;;24.72;36.13;96791.13;5015247;28;20187;-71